Time;durP1;ratioP1;P1;durP2;ratioP2;P2;SDS_P1;SDS_P2;PMS_P1;PMS_P2;Temp;Humidity;BMP_temperature;BMP_pressure;BME280_temperature;BME280_humidity;BME280_pressure;Samples;Min_cycle;Max_cycle;Signal;HPM_P1;HPM_P2
2023/02/22 00:00:45;;;;;;;12.95;8.25;;;6.40;56.30;;;;;;4995358;28;20037;-73
2023/02/22 00:03:13;;;;;;;;;;;6.40;56.30;;;;;;4995747;28;20044;-73
2023/02/22 00:05:46;;;;;;;14.43;8.95;;;6.40;56.20;;;;;;4995037;28;19917;-73
2023/02/22 00:08:16;;;;;;;13.70;8.57;;;6.40;56.20;;;;;;4995261;28;20037;-73
2023/02/22 00:10:43;;;;;;;17.63;8.98;;;6.40;56.20;;;;;;4994520;28;20038;-73
2023/02/22 00:13:12;;;;;;;14.55;8.63;;;6.40;56.20;;;;;;4995428;28;20541;-74
2023/02/22 00:15:40;;;;;;;13.60;8.38;;;6.40;56.40;;;;;;5009767;28;20037;-74
2023/02/22 00:18:09;;;;;;;14.30;8.10;;;6.40;56.40;;;;;;4995481;28;20521;-74
2023/02/22 00:20:37;;;;;;;13.68;8.32;;;6.40;56.60;;;;;;4995147;28;20096;-73
2023/02/22 00:23:08;;;;;;;14.25;8.13;;;6.40;56.60;;;;;;5008561;28;20038;-75
2023/02/22 00:25:35;;;;;;;16.48;9.05;;;6.40;56.70;;;;;;4997645;28;20034;-74
2023/02/22 00:28:01;;;;;;;13.00;7.63;;;6.40;56.90;;;;;;5009950;28;20512;-75
2023/02/22 00:30:30;;;;;;;18.05;8.30;;;6.40;56.80;;;;;;4993725;28;20485;-75
2023/02/22 00:32:57;;;;;;;21.80;8.52;;;6.40;56.90;;;;;;4993554;28;20030;-74
2023/02/22 00:35:26;;;;;;;14.40;9.13;;;6.40;56.80;;;;;;5009330;28;20492;-74
2023/02/22 00:37:54;;;;;;;13.90;8.00;;;6.40;56.80;;;;;;4993919;28;20044;-74
2023/02/22 00:40:23;;;;;;;13.32;8.32;;;6.30;56.70;;;;;;4994556;28;20088;-75
2023/02/22 00:42:50;;;;;;;18.75;8.25;;;6.40;56.80;;;;;;5009820;28;20041;-73
2023/02/22 00:45:17;;;;;;;17.83;8.85;;;6.40;56.70;;;;;;5009380;28;20456;-73
2023/02/22 00:47:44;;;;;;;15.60;9.50;;;6.30;56.40;;;;;;4993885;28;20039;-75
2023/02/22 00:50:10;;;;;;;15.93;7.97;;;6.30;56.60;;;;;;4995646;28;20044;-73
2023/02/22 00:52:37;;;;;;;14.40;8.18;;;6.30;56.50;;;;;;4994708;28;20087;-75
2023/02/22 00:55:05;;;;;;;14.88;8.65;;;6.30;56.70;;;;;;4994449;28;20049;-73
2023/02/22 00:57:33;;;;;;;14.68;9.25;;;6.40;56.60;;;;;;5009161;28;20042;-75
2023/02/22 01:00:10;;;;;;;15.90;8.35;;;6.30;56.40;;;;;;5009625;28;20370;-75
2023/02/22 01:02:39;;;;;;;14.95;8.02;;;6.30;56.60;;;;;;4995099;28;20038;-74
2023/02/22 01:05:07;;;;;;;14.77;8.85;;;6.30;56.50;;;;;;5009366;28;20493;-76
2023/02/22 01:07:33;;;;;;;14.48;8.32;;;6.30;56.50;;;;;;5009059;28;20440;-74
2023/02/22 01:10:01;;;;;;;14.07;8.48;;;6.30;56.50;;;;;;4994274;28;20034;-74
2023/02/22 01:12:28;;;;;;;15.43;8.77;;;6.30;56.80;;;;;;4992686;28;20053;-75
2023/02/22 01:14:55;;;;;;;15.25;8.32;;;6.30;56.90;;;;;;4993899;28;20098;-74
2023/02/22 01:17:25;;;;;;;12.45;7.78;;;6.30;56.90;;;;;;5009216;28;20045;-75
2023/02/22 01:19:52;;;;;;;16.65;8.80;;;6.30;57.00;;;;;;5006934;28;20412;-73
2023/02/22 01:22:20;;;;;;;13.45;8.05;;;6.30;56.80;;;;;;5009521;28;20121;-74
2023/02/22 01:24:50;;;;;;;15.55;8.52;;;6.30;56.90;;;;;;4992890;28;20543;-74
2023/02/22 01:27:17;;;;;;;15.68;8.95;;;6.30;56.90;;;;;;4994248;28;20497;-74
2023/02/22 01:29:43;;;;;;;15.27;8.40;;;6.30;56.90;;;;;;5009444;28;20030;-74
2023/02/22 01:32:10;;;;;;;16.13;9.15;;;6.30;56.90;;;;;;4992314;28;20462;-75
2023/02/22 01:34:37;;;;;;;15.13;8.73;;;6.30;56.70;;;;;;5009832;28;20049;-75
2023/02/22 01:37:05;;;;;;;15.43;9.10;;;6.30;56.70;;;;;;5011240;28;20035;-74
2023/02/22 01:39:31;;;;;;;14.60;9.13;;;6.30;56.70;;;;;;4995354;28;20057;-73
2023/02/22 01:41:57;;;;;;;13.63;8.38;;;6.30;56.60;;;;;;4997887;28;20417;-75
2023/02/22 01:44:35;;;;;;;17.13;9.55;;;6.30;56.70;;;;;;5011402;28;20042;-74
2023/02/22 01:47:03;;;;;;;14.38;9.13;;;6.30;56.60;;;;;;5012776;28;20041;-76
2023/02/22 01:49:45;;;;;;;15.98;9.25;;;6.20;56.60;;;;;;5013454;28;20032;-75
2023/02/22 01:52:14;;;;;;;16.58;8.82;;;6.30;56.80;;;;;;4996906;28;20042;-75
2023/02/22 01:54:45;;;;;;;14.18;8.23;;;6.20;56.70;;;;;;4996945;28;20030;-75
2023/02/22 01:57:22;;;;;;;13.05;7.72;;;6.20;56.70;;;;;;5013464;28;20529;-74
2023/02/22 01:59:54;;;;;;;16.45;8.57;;;6.20;56.50;;;;;;4996369;28;20038;-76
2023/02/22 02:02:21;;;;;;;15.98;9.05;;;6.20;56.40;;;;;;5012538;28;20505;-76
2023/02/22 02:04:48;;;;;;;17.58;8.13;;;6.20;56.40;;;;;;5011750;28;20030;-73
2023/02/22 02:07:17;;;;;;;17.08;8.80;;;6.20;56.40;;;;;;5012940;28;20041;-75
2023/02/22 02:09:58;;;;;;;15.00;9.15;;;6.20;56.50;;;;;;5010647;28;20073;-74
2023/02/22 02:12:26;;;;;;;18.42;9.25;;;6.20;56.50;;;;;;5011887;28;20080;-74
2023/02/22 02:14:52;;;;;;;15.25;8.93;;;6.20;56.50;;;;;;4994218;28;20129;-73
2023/02/22 02:17:21;;;;;;;15.20;9.00;;;6.20;56.60;;;;;;4998594;28;20038;-75
2023/02/22 02:20:10;;;;;;;16.38;9.10;;;6.20;56.60;;;;;;5013520;28;20488;-74
2023/02/22 02:23:14;;;;;;;13.75;8.35;;;6.20;56.60;;;;;;5013749;28;20026;-74
2023/02/22 02:25:42;;;;;;;16.35;8.52;;;6.20;56.80;;;;;;4998448;28;20037;-74
2023/02/22 02:28:44;;;;;;;17.55;9.30;;;6.20;56.90;;;;;;5013256;28;20037;-74
2023/02/22 02:31:28;;;;;;;16.55;8.65;;;6.10;57.00;;;;;;5012679;28;20042;-73
2023/02/22 02:34:13;;;;;;;14.60;8.90;;;6.10;57.00;;;;;;5012482;28;20065;-73
2023/02/22 02:36:57;;;;;;;17.48;9.90;;;6.10;57.10;;;;;;5012756;28;20030;-74
2023/02/22 02:39:40;;;;;;;16.30;8.65;;;6.10;57.10;;;;;;4996724;28;20039;-74
2023/02/22 02:42:11;;;;;;;16.25;8.95;;;6.20;57.20;;;;;;5012263;28;20042;-74
2023/02/22 02:44:46;;;;;;;16.35;9.18;;;6.20;57.10;;;;;;5011824;28;20038;-75
2023/02/22 02:47:27;;;;;;;17.25;9.73;;;6.10;57.00;;;;;;4996632;28;20038;-76
2023/02/22 02:50:17;;;;;;;13.82;8.18;;;6.20;57.00;;;;;;5011772;28;20026;-76
2023/02/22 02:52:45;;;;;;;14.95;8.57;;;6.10;56.80;;;;;;5014108;28;20065;-75
2023/02/22 02:55:12;;;;;;;14.35;8.50;;;6.10;56.70;;;;;;5013345;28;20041;-74
2023/02/22 02:57:40;;;;;;;17.90;9.35;;;6.10;56.70;;;;;;4998970;28;20029;-75
2023/02/22 03:00:23;;;;;;;16.27;8.60;;;6.10;56.90;;;;;;4994672;28;20703;-75
2023/02/22 03:03:07;;;;;;;15.90;8.90;;;6.10;56.90;;;;;;4994632;28;20088;-75
2023/02/22 03:06:25;;;;;;;16.42;8.85;;;6.10;56.90;;;;;;4996622;28;20034;-75
2023/02/22 03:09:15;;;;;;;17.00;9.27;;;6.10;56.90;;;;;;4958828;28;20125;-74
2023/02/22 03:12:00;;;;;;;17.52;9.02;;;6.10;56.90;;;;;;4975262;28;20043;-74
2023/02/22 03:14:42;;;;;;;15.48;9.02;;;6.10;57.10;;;;;;4973949;28;20477;-74
2023/02/22 03:17:21;;;;;;;17.13;9.35;;;6.10;57.10;;;;;;4975993;28;20089;-75
2023/02/22 03:19:54;;;;;;;14.93;8.98;;;6.10;57.00;;;;;;4964829;28;20054;-75
2023/02/22 03:22:46;;;;;;;14.77;8.77;;;6.10;57.00;;;;;;4975307;28;20045;-75
2023/02/22 03:25:29;;;;;;;14.20;8.82;;;6.10;57.00;;;;;;4956765;28;20194;-74
2023/02/22 03:28:04;;;;;;;15.15;9.43;;;6.10;57.10;;;;;;4974906;28;20593;-74
2023/02/22 03:30:59;;;;;;;18.77;9.40;;;6.10;57.10;;;;;;4958541;28;20030;-74
2023/02/22 03:33:50;;;;;;;15.05;9.10;;;6.10;57.00;;;;;;4959509;28;20055;-75
2023/02/22 03:36:37;;;;;;;14.40;8.60;;;6.10;56.90;;;;;;4974403;28;20140;-75
2023/02/22 03:39:07;;;;;;;15.13;8.93;;;6.10;57.00;;;;;;4958780;28;20046;-75
2023/02/22 03:41:37;;;;;;;15.50;8.10;;;6.10;57.00;;;;;;4971986;28;20037;-80
2023/02/22 03:44:11;;;;;;;16.77;8.75;;;6.10;57.00;;;;;;4959347;28;20069;-79
2023/02/22 03:46:44;;;;;;;15.45;8.73;;;6.10;57.20;;;;;;5012230;28;20026;-81
2023/02/22 03:49:44;;;;;;;14.85;8.52;;;6.10;57.30;;;;;;5000418;28;20124;-82
2023/02/22 03:52:11;;;;;;;16.08;8.57;;;6.10;57.30;;;;;;4987306;28;20034;-80
2023/02/22 03:54:39;;;;;;;30.88;9.00;;;6.10;57.30;;;;;;5007450;28;20034;-82
2023/02/22 03:57:28;;;;;;;13.80;8.43;;;6.10;57.30;;;;;;5010314;28;20473;-82
2023/02/22 04:00:06;;;;;;;14.93;8.48;;;6.10;57.30;;;;;;5009720;28;20034;-81
2023/02/22 04:02:39;;;;;;;16.67;8.68;;;6.00;57.20;;;;;;4994580;28;20030;-76
2023/02/22 04:05:06;;;;;;;12.77;7.90;;;6.00;57.00;;;;;;5007122;28;20036;-75
2023/02/22 04:07:32;;;;;;;14.02;7.95;;;6.00;56.90;;;;;;5007840;28;20037;-77
2023/02/22 04:09:58;;;;;;;16.65;7.88;;;6.00;56.90;;;;;;5008016;28;20037;-78
2023/02/22 04:12:25;;;;;;;14.98;8.40;;;6.00;56.80;;;;;;5006622;28;20592;-75
2023/02/22 04:14:59;;;;;;;13.88;8.27;;;6.10;56.90;;;;;;5010012;28;20038;-76
2023/02/22 04:17:24;;;;;;;15.48;8.63;;;6.00;56.90;;;;;;5009403;28;20507;-77
2023/02/22 04:19:50;;;;;;;14.27;8.82;;;6.00;56.90;;;;;;5008892;28;21296;-76
2023/02/22 04:22:18;;;;;;;14.20;8.57;;;6.00;56.80;;;;;;4994464;28;20034;-78
2023/02/22 04:24:45;;;;;;;14.35;8.57;;;6.00;56.80;;;;;;5008331;28;20125;-78
2023/02/22 04:27:11;;;;;;;15.73;8.18;;;6.00;56.90;;;;;;4993602;28;20041;-78
2023/02/22 04:29:38;;;;;;;12.95;8.27;;;6.00;57.00;;;;;;5009178;28;20037;-76
2023/02/22 04:32:07;;;;;;;16.50;8.70;;;6.00;57.10;;;;;;4994337;28;20042;-77
2023/02/22 04:34:33;;;;;;;14.90;8.55;;;6.00;57.00;;;;;;5010860;28;20037;-77
2023/02/22 04:36:59;;;;;;;14.90;8.13;;;6.00;57.10;;;;;;4993731;28;20123;-77
2023/02/22 04:39:26;;;;;;;15.25;8.70;;;6.00;56.90;;;;;;5009818;28;20049;-82
2023/02/22 04:41:52;;;;;;;15.25;8.73;;;6.00;56.90;;;;;;4976566;28;20046;-79
2023/02/22 04:44:18;;;;;;;13.55;7.70;;;6.00;56.80;;;;;;5009666;28;20038;-80
2023/02/22 04:46:45;;;;;;;14.98;8.55;;;6.00;56.80;;;;;;5009531;28;20545;-79
2023/02/22 04:49:16;;;;;;;16.40;8.55;;;6.00;56.90;;;;;;4992886;28;20362;-81
2023/02/22 04:51:43;;;;;;;14.02;8.07;;;6.00;56.80;;;;;;4993330;28;20038;-83
2023/02/22 04:54:24;;;;;;;14.45;8.15;;;6.00;56.80;;;;;;4996282;28;20034;-79
2023/02/22 04:56:53;;;;;;;15.02;8.32;;;6.00;57.00;;;;;;4981361;28;20492;-80
2023/02/22 04:59:19;;;;;;;14.50;8.27;;;6.00;56.90;;;;;;5009659;28;20045;-81
2023/02/22 05:01:52;;;;;;;15.15;8.13;;;6.00;57.00;;;;;;5009600;28;20042;-81
2023/02/22 05:04:18;;;;;;;13.88;7.85;;;6.00;57.00;;;;;;4995999;28;20033;-81
2023/02/22 05:06:46;;;;;;;16.52;9.07;;;6.00;57.20;;;;;;4994471;28;20038;-81
2023/02/22 05:09:13;;;;;;;15.43;8.15;;;6.00;57.10;;;;;;4994111;28;20492;-83
2023/02/22 05:11:39;;;;;;;16.58;8.98;;;6.00;57.00;;;;;;4997099;28;20038;-83
2023/02/22 05:14:05;;;;;;;14.32;7.60;;;6.10;56.90;;;;;;5013764;28;20564;-82
2023/02/22 05:16:31;;;;;;;15.38;8.43;;;6.10;57.00;;;;;;4999327;28;21549;-81
2023/02/22 05:18:57;;;;;;;16.20;8.65;;;6.10;56.90;;;;;;4999756;28;20066;-83
2023/02/22 05:21:23;;;;;;;13.65;8.20;;;6.10;56.80;;;;;;5014521;28;20745;-82
2023/02/22 05:23:49;;;;;;;15.50;8.15;;;6.10;56.70;;;;;;5013848;28;20057;-82
2023/02/22 05:26:15;;;;;;;14.25;8.25;;;6.10;56.60;;;;;;4999365;28;20053;-81
2023/02/22 05:28:41;;;;;;;12.30;7.40;;;6.10;56.50;;;;;;4999236;28;20469;-83
2023/02/22 05:31:07;;;;;;;14.45;8.23;;;6.10;56.30;;;;;;4996464;28;20176;-82
2023/02/22 05:33:33;;;;;;;13.77;8.35;;;6.20;56.20;;;;;;5013088;28;20268;-81
2023/02/22 05:35:59;;;;;;;14.07;8.32;;;6.20;56.10;;;;;;4997731;28;20049;-81
2023/02/22 05:38:25;;;;;;;13.43;8.02;;;6.30;56.10;;;;;;4998714;28;20468;-82
2023/02/22 05:40:51;;;;;;;13.43;7.95;;;6.30;55.90;;;;;;5013787;28;20042;-78
2023/02/22 05:43:17;;;;;;;15.95;8.57;;;6.40;55.90;;;;;;4999079;28;20174;-82
2023/02/22 05:45:43;;;;;;;14.60;8.77;;;6.40;55.70;;;;;;4998015;28;20084;-81
2023/02/22 05:48:09;;;;;;;12.68;7.80;;;6.50;55.70;;;;;;4998158;28;20047;-81
2023/02/22 05:50:35;;;;;;;14.35;8.20;;;6.50;55.50;;;;;;4997999;28;21044;-81
2023/02/22 05:53:01;;;;;;;13.00;8.40;;;6.60;55.30;;;;;;4987934;28;20030;-82
2023/02/22 05:55:27;;;;;;;15.68;8.38;;;6.60;55.00;;;;;;5014295;28;20039;-82
2023/02/22 05:57:53;;;;;;;10.38;7.20;;;6.70;54.90;;;;;;4998343;28;20043;-81
2023/02/22 06:00:26;;;;;;;13.55;8.10;;;6.80;54.70;;;;;;4998653;28;20043;-81
2023/02/22 06:03:04;;;;;;;12.60;7.75;;;6.90;54.40;;;;;;5013610;28;20034;-81
2023/02/22 06:05:30;;;;;;;13.95;8.10;;;6.90;54.20;;;;;;4995560;28;20030;-80
2023/02/22 06:07:57;;;;;;;14.07;8.18;;;7.00;53.70;;;;;;4997826;28;20038;-80
2023/02/22 06:10:24;;;;;;;15.07;8.88;;;7.10;53.40;;;;;;5000241;28;20087;-87
2023/02/22 06:12:53;;;;;;;14.90;7.70;;;7.10;53.00;;;;;;4997616;28;20072;-90
2023/02/22 06:15:20;;;;;;;13.80;8.00;;;7.20;52.70;;;;;;5014595;28;20096;-86
2023/02/22 06:17:47;;;;;;;13.50;7.45;;;7.30;52.50;;;;;;5013231;28;20108;-87
2023/02/22 06:20:17;;;;;;;12.65;7.57;;;7.40;52.50;;;;;;5012350;28;20049;-89
2023/02/22 06:22:44;;;;;;;13.38;7.80;;;7.50;52.30;;;;;;4996031;28;20042;-78
2023/02/22 06:25:15;;;;;;;14.60;7.80;;;7.60;52.10;;;;;;4997153;28;20409;-78
2023/02/22 06:27:41;;;;;;;14.82;7.88;;;7.70;52.00;;;;;;4996126;28;20034;-77
2023/02/22 06:30:08;;;;;;;13.55;8.80;;;7.70;52.10;;;;;;5011685;28;20389;-76
2023/02/22 06:32:34;;;;;;;14.70;8.95;;;7.80;51.90;;;;;;4997231;28;20084;-79
2023/02/22 06:35:00;;;;;;;12.30;7.90;;;7.90;51.90;;;;;;5012879;28;20534;-78
2023/02/22 06:37:26;;;;;;;13.98;8.48;;;8.00;52.00;;;;;;4997488;28;20030;-76
2023/02/22 06:39:52;;;;;;;13.75;7.75;;;8.10;51.70;;;;;;4996202;28;20038;-75
2023/02/22 06:42:18;;;;;;;15.18;8.20;;;8.20;51.80;;;;;;4997428;28;20037;-76
2023/02/22 06:44:44;;;;;;;14.70;7.93;;;8.20;51.80;;;;;;4995310;28;20039;-75
2023/02/22 06:47:10;;;;;;;12.38;6.85;;;8.30;52.10;;;;;;4997112;28;20456;-76
2023/02/22 06:49:36;;;;;;;14.30;7.95;;;8.40;52.40;;;;;;4996879;28;20075;-74
2023/02/22 06:52:07;;;;;;;13.45;7.47;;;8.50;52.70;;;;;;4996940;28;20395;-77
2023/02/22 06:54:33;;;;;;;14.02;7.65;;;8.50;52.80;;;;;;4994950;28;20672;-76
2023/02/22 06:56:59;;;;;;;13.38;7.70;;;8.60;53.20;;;;;;4998404;28;20034;-77
2023/02/22 06:59:26;;;;;;;13.98;7.82;;;8.60;53.30;;;;;;4996580;28;20031;-76
2023/02/22 07:01:53;;;;;;;14.05;7.43;;;8.80;53.80;;;;;;5011072;28;20045;-76
2023/02/22 07:04:20;;;;;;;11.70;7.20;;;8.80;53.80;;;;;;5012322;28;20512;-77
2023/02/22 07:06:47;;;;;;;12.57;7.30;;;8.80;53.40;;;;;;4995354;28;20038;-77
2023/02/22 07:09:15;;;;;;;12.80;7.32;;;8.90;53.30;;;;;;4994425;28;20093;-77
2023/02/22 07:11:41;;;;;;;12.30;7.50;;;8.90;53.30;;;;;;4997574;28;20586;-77
2023/02/22 07:14:07;;;;;;;13.23;7.65;;;9.00;53.40;;;;;;4996196;28;20045;-77
2023/02/22 07:16:33;;;;;;;11.40;6.97;;;9.10;53.70;;;;;;4998152;28;20540;-77
2023/02/22 07:18:59;;;;;;;15.25;7.32;;;9.20;54.10;;;;;;4997173;28;20140;-77
2023/02/22 07:21:26;;;;;;;13.73;7.13;;;9.20;53.60;;;;;;4995656;28;20074;-74
2023/02/22 07:23:54;;;;;;;12.25;7.50;;;9.30;52.90;;;;;;4996893;28;20445;-73
2023/02/22 07:26:21;;;;;;;11.23;6.88;;;9.40;52.40;;;;;;4996196;28;20521;-76
2023/02/22 07:28:48;;;;;;;12.93;7.82;;;9.40;52.60;;;;;;4996509;28;20031;-73
2023/02/22 07:31:14;;;;;;;10.65;6.68;;;9.50;53.90;;;;;;4995228;28;20655;-75
2023/02/22 07:33:40;;;;;;;11.25;6.70;;;9.60;54.50;;;;;;4996525;28;20144;-75
2023/02/22 07:36:06;;;;;;;13.50;7.25;;;9.60;54.40;;;;;;4995088;28;20506;-75
2023/02/22 07:38:32;;;;;;;11.82;7.28;;;9.60;53.70;;;;;;5011665;28;20729;-75
2023/02/22 07:40:58;;;;;;;11.05;6.68;;;9.70;53.60;;;;;;4994698;28;20176;-74
2023/02/22 07:43:26;;;;;;;13.27;6.93;;;9.70;53.30;;;;;;4997277;28;20397;-75
2023/02/22 07:45:57;;;;;;;13.50;6.45;;;9.80;53.40;;;;;;5010141;28;20049;-73
2023/02/22 07:48:25;;;;;;;11.48;7.25;;;9.90;53.30;;;;;;4996214;28;20141;-75
2023/02/22 07:50:51;;;;;;;12.30;6.70;;;9.90;53.30;;;;;;4995472;28;20053;-74
2023/02/22 07:53:20;;;;;;;11.25;6.65;;;10.00;53.10;;;;;;4995851;28;20379;-74
2023/02/22 07:55:49;;;;;;;12.73;6.78;;;10.00;52.90;;;;;;4994126;28;20532;-75
2023/02/22 07:58:18;;;;;;;9.90;6.28;;;10.00;52.70;;;;;;4994278;28;20670;-75
2023/02/22 08:00:47;;;;;;;10.35;6.45;;;10.10;52.50;;;;;;4995476;28;20042;-73
2023/02/22 08:03:15;;;;;;;12.23;6.65;;;10.10;52.40;;;;;;5011245;28;20037;-73
2023/02/22 08:05:45;;;;;;;12.98;6.97;;;10.10;52.30;;;;;;4996236;28;20034;-75
2023/02/22 08:08:13;;;;;;;9.88;7.07;;;10.10;52.30;;;;;;4995649;28;20556;-75
2023/02/22 08:10:39;;;;;;;12.13;6.72;;;10.20;52.30;;;;;;4994569;28;20129;-75
2023/02/22 08:13:05;;;;;;;10.63;6.72;;;10.20;52.20;;;;;;4994321;28;20059;-75
2023/02/22 08:15:34;;;;;;;11.45;7.00;;;10.20;52.20;;;;;;5010523;28;20033;-75
2023/02/22 08:18:03;;;;;;;11.75;7.00;;;10.20;52.20;;;;;;5010986;28;20073;-73
2023/02/22 08:20:30;;;;;;;11.40;6.80;;;10.20;52.60;;;;;;4995463;28;20129;-74
2023/02/22 08:22:57;;;;;;;11.50;7.15;;;10.30;53.10;;;;;;4995103;28;20148;-77
2023/02/22 08:25:26;;;;;;;10.10;6.88;;;10.30;53.40;;;;;;4995689;28;20133;-74
2023/02/22 08:27:57;;;;;;;12.93;6.82;;;10.30;53.20;;;;;;4995862;28;20069;-76
2023/02/22 08:30:24;;;;;;;15.52;7.53;;;10.30;53.80;;;;;;4995355;28;20049;-75
2023/02/22 08:32:50;;;;;;;12.57;7.40;;;10.30;53.00;;;;;;4999079;28;20046;-75
2023/02/22 08:35:18;;;;;;;12.40;7.40;;;10.30;52.90;;;;;;4993884;28;20053;-74
2023/02/22 08:37:46;;;;;;;14.05;7.25;;;10.30;52.80;;;;;;4995296;28;20518;-75
2023/02/22 08:40:16;;;;;;;10.57;6.60;;;10.30;52.80;;;;;;4995556;28;20147;-74
2023/02/22 08:42:42;;;;;;;10.35;7.25;;;10.30;52.80;;;;;;4995256;28;20176;-76
2023/02/22 08:45:09;;;;;;;11.95;6.95;;;10.30;52.60;;;;;;4993948;28;20038;-75
2023/02/22 08:47:35;;;;;;;10.85;6.75;;;10.30;52.70;;;;;;4994843;28;20035;-76
2023/02/22 08:50:02;;;;;;;11.55;7.10;;;10.30;52.60;;;;;;4994160;28;20089;-77
2023/02/22 08:52:28;;;;;;;10.73;7.13;;;10.30;52.60;;;;;;4995878;28;20038;-76
2023/02/22 08:54:54;;;;;;;10.70;6.57;;;10.20;52.50;;;;;;4994642;28;20056;-75
2023/02/22 08:57:21;;;;;;;11.40;6.90;;;10.20;52.40;;;;;;4996195;28;20191;-75
2023/02/22 08:59:47;;;;;;;10.18;7.25;;;10.20;52.30;;;;;;4994794;28;20402;-76
2023/02/22 09:02:18;;;;;;;11.65;6.78;;;10.20;52.20;;;;;;4995294;28;20041;-74
2023/02/22 09:04:43;;;;;;;11.55;6.82;;;10.20;52.20;;;;;;4994824;28;20113;-76
2023/02/22 09:07:10;;;;;;;9.75;6.57;;;10.20;52.20;;;;;;4995183;28;20552;-77
2023/02/22 09:09:37;;;;;;;10.63;6.88;;;10.20;52.20;;;;;;4992889;28;20220;-77
2023/02/22 09:12:03;;;;;;;10.00;6.60;;;10.10;52.20;;;;;;5009269;28;20042;-77
2023/02/22 09:14:29;;;;;;;13.75;7.75;;;10.20;51.90;;;;;;4994346;28;20042;-80
2023/02/22 09:16:55;;;;;;;10.27;6.97;;;10.20;51.50;;;;;;4993527;28;20040;-82
2023/02/22 09:19:21;;;;;;;12.88;7.57;;;10.20;51.00;;;;;;4994270;28;20128;-86
2023/02/22 09:21:55;;;;;;;10.98;6.85;;;10.10;50.70;;;;;;5010096;28;20046;-80
2023/02/22 09:24:21;;;;;;;11.13;7.05;;;10.10;50.80;;;;;;4994716;28;20041;-82
2023/02/22 09:26:52;;;;;;;11.38;7.20;;;10.10;50.80;;;;;;5009698;28;20035;-82
2023/02/22 09:29:21;;;;;;;12.00;7.10;;;10.20;50.90;;;;;;4994012;28;20160;-83
2023/02/22 09:31:48;;;;;;;12.15;7.07;;;10.10;51.10;;;;;;4994153;28;20133;-80
2023/02/22 09:34:15;;;;;;;11.07;7.20;;;10.10;51.30;;;;;;4996303;28;20042;-81
2023/02/22 09:36:42;;;;;;;11.65;7.07;;;10.10;51.60;;;;;;4993565;28;20038;-80
2023/02/22 09:39:12;;;;;;;25.52;6.85;;;10.10;51.90;;;;;;5009827;28;20166;-78
2023/02/22 09:42:02;;;;;;;14.73;7.28;;;10.00;52.00;;;;;;5009765;28;20041;-82
2023/02/22 09:45:02;;;;;;;12.90;7.28;;;10.00;52.20;;;;;;4993356;28;20314;-83
2023/02/22 09:47:45;;;;;;;14.02;7.28;;;10.00;52.40;;;;;;4994084;28;20666;-78
2023/02/22 09:50:16;;;;;;;11.00;6.50;;;10.00;52.60;;;;;;4995243;28;20041;-79
2023/02/22 09:53:06;;;;;;;13.40;6.85;;;10.00;52.60;;;;;;4995464;28;20049;-80
2023/02/22 09:55:46;;;;;;;12.15;6.93;;;9.90;52.70;;;;;;4994497;28;20042;-80
2023/02/22 09:58:19;;;;;;;10.90;6.70;;;9.90;52.70;;;;;;4997826;28;20045;-78
2023/02/22 10:00:50;;;;;;;13.70;7.15;;;9.90;52.60;;;;;;4998129;28;20046;-76
2023/02/22 10:03:59;;;;;;;14.10;7.10;;;9.90;52.60;;;;;;4997310;28;20113;-82
2023/02/22 10:06:26;;;;;;;13.27;7.68;;;9.80;52.20;;;;;;4993642;28;20117;-79
2023/02/22 10:08:55;;;;;;;13.23;7.10;;;9.80;51.60;;;;;;4998137;28;20497;-79
2023/02/22 10:12:01;;;;;;;12.90;7.10;;;9.80;52.00;;;;;;5013053;28;20125;-81
2023/02/22 10:15:10;;;;;;;15.20;7.97;;;9.80;52.30;;;;;;4998097;28;20543;-78
2023/02/22 10:18:10;;;;;;;19.92;11.57;;;9.80;50.70;;;;;;4988000;28;20590;-80
2023/02/22 10:20:56;;;;;;;20.60;11.10;;;9.40;41.10;;;;;;5013212;28;20113;-80
2023/02/22 10:23:49;;;;;;;22.65;12.20;;;9.00;38.40;;;;;;4998678;28;20041;-82
2023/02/22 10:26:24;;;;;;;20.77;11.65;;;8.60;37.00;;;;;;4996535;28;20038;-81
2023/02/22 10:28:59;;;;;;;20.02;12.07;;;8.10;36.90;;;;;;5012016;28;20061;-81
2023/02/22 10:31:41;;;;;;;20.77;12.23;;;7.70;37.20;;;;;;4997431;28;20112;-79
2023/02/22 10:34:18;;;;;;;20.02;11.32;;;7.30;36.70;;;;;;5011322;28;20109;-78
2023/02/22 10:36:48;;;;;;;20.27;11.90;;;7.00;37.10;;;;;;4998063;28;20076;-81
2023/02/22 10:39:31;;;;;;;19.33;11.85;;;6.80;37.80;;;;;;4997518;28;20062;-79
2023/02/22 10:42:04;;;;;;;20.35;10.82;;;6.50;37.90;;;;;;4995681;28;20042;-80
2023/02/22 10:44:34;;;;;;;23.02;11.82;;;6.30;38.40;;;;;;4996685;28;20034;-81
2023/02/22 10:47:04;;;;;;;19.25;11.75;;;6.10;38.90;;;;;;5011969;28;20041;-81
2023/02/22 10:49:37;;;;;;;19.85;10.80;;;5.90;39.00;;;;;;5011976;28;20453;-81
2023/02/22 10:52:12;;;;;;;20.38;11.18;;;5.70;39.20;;;;;;4997355;28;20057;-81
2023/02/22 10:54:41;;;;;;;19.13;11.70;;;5.50;39.70;;;;;;5013166;28;20508;-81
2023/02/22 10:57:07;;;;;;;17.17;10.45;;;5.40;39.40;;;;;;4996571;28;20034;-81
2023/02/22 10:59:38;;;;;;;18.83;10.13;;;5.20;40.70;;;;;;4997497;28;20038;-79
2023/02/22 11:02:22;;;;;;;20.33;11.23;;;5.10;40.10;;;;;;4996948;28;20125;-81
2023/02/22 11:04:51;;;;;;;20.48;10.88;;;5.00;41.30;;;;;;4995513;28;20046;-80
2023/02/22 11:07:37;;;;;;;19.45;10.77;;;4.90;41.40;;;;;;4996449;28;20572;-79
2023/02/22 11:10:08;;;;;;;19.17;10.35;;;4.80;41.60;;;;;;4993669;28;20046;-76
2023/02/22 11:12:36;;;;;;;17.50;10.00;;;4.70;42.20;;;;;;5010479;28;20492;-78
2023/02/22 11:15:17;;;;;;;19.75;10.00;;;4.80;44.50;;;;;;5011221;28;20042;-76
2023/02/22 11:17:49;;;;;;;14.80;9.00;;;5.00;46.00;;;;;;5011402;28;20046;-77
2023/02/22 11:20:28;;;;;;;15.88;9.10;;;5.20;47.30;;;;;;5009271;28;20038;-77
2023/02/22 11:22:57;;;;;;;15.95;8.48;;;5.30;47.80;;;;;;4995303;28;20036;-76
2023/02/22 11:25:41;;;;;;;17.10;8.88;;;5.50;48.80;;;;;;4995487;28;20027;-78
2023/02/22 11:28:19;;;;;;;15.48;8.55;;;5.60;49.00;;;;;;4996253;28;20035;-79
2023/02/22 11:30:50;;;;;;;14.75;8.18;;;5.70;49.50;;;;;;4996479;28;20033;-78
2023/02/22 11:33:16;;;;;;;15.07;8.70;;;5.90;50.10;;;;;;4994237;28;20082;-77
2023/02/22 11:35:51;;;;;;;20.05;9.60;;;6.00;50.20;;;;;;4995988;28;20451;-77
2023/02/22 11:38:27;;;;;;;16.50;9.25;;;6.10;50.40;;;;;;5010665;28;20034;-77
2023/02/22 11:41:17;;;;;;;13.85;8.70;;;6.20;50.70;;;;;;4984129;28;20181;-77
2023/02/22 11:43:47;;;;;;;13.90;8.27;;;6.30;50.90;;;;;;4996954;28;20022;-77
2023/02/22 11:46:16;;;;;;;17.60;8.90;;;6.30;51.10;;;;;;4995411;28;20044;-76
2023/02/22 11:49:05;;;;;;;15.30;8.88;;;6.40;51.30;;;;;;4995934;28;20659;-77
2023/02/22 11:51:31;;;;;;;13.25;8.23;;;6.50;51.30;;;;;;4996362;28;20049;-77
2023/02/22 11:54:27;;;;;;;15.70;8.65;;;6.60;51.70;;;;;;4996095;28;20527;-76
2023/02/22 11:57:15;;;;;;;16.10;8.85;;;6.70;51.90;;;;;;4982518;28;20375;-76
2023/02/22 11:59:54;;;;;;;15.45;8.63;;;6.70;52.00;;;;;;4995172;28;20092;-77
2023/02/22 12:03:02;;;;;;;14.93;8.90;;;6.80;52.20;;;;;;5010496;28;20034;-78
2023/02/22 12:05:58;;;;;;;14.65;8.60;;;6.90;52.20;;;;;;4978150;28;20045;-77
2023/02/22 12:08:28;;;;;;;11.98;7.97;;;6.90;52.20;;;;;;4995766;28;20584;-78
2023/02/22 12:11:18;;;;;;;17.65;9.15;;;7.00;52.90;;;;;;5009957;28;20425;-78
2023/02/22 12:14:08;;;;;;;13.50;8.15;;;7.10;52.40;;;;;;4995808;28;20452;-80
2023/02/22 12:17:02;;;;;;;13.60;8.15;;;7.10;52.90;;;;;;4995896;28;20038;-78
2023/02/22 12:19:48;;;;;;;13.07;7.78;;;7.20;53.10;;;;;;5011054;28;20128;-82
2023/02/22 12:22:23;;;;;;;;;;;7.30;53.40;;;;;;5010056;28;20134;-79
2023/02/22 12:25:01;;;;;;;13.63;7.90;;;7.30;53.50;;;;;;4994410;28;20004;-80
2023/02/22 12:27:42;;;;;;;12.88;7.72;;;7.40;53.50;;;;;;5010640;28;20038;-89
2023/02/22 12:30:22;;;;;;;13.38;8.50;;;7.40;53.30;;;;;;5012798;28;20037;-80
2023/02/22 12:32:58;;;;;;;14.73;8.40;;;7.40;53.20;;;;;;4996012;28;20046;-75
2023/02/22 12:35:33;;;;;;;13.35;8.55;;;7.50;53.10;;;;;;5009358;28;20037;-76
2023/02/22 12:38:47;;;;;;;12.73;8.20;;;7.50;53.00;;;;;;4995550;28;20100;-77
2023/02/22 12:41:37;;;;;;;14.98;8.60;;;7.50;53.20;;;;;;4993026;28;20057;-76
2023/02/22 12:44:10;;;;;;;16.65;8.15;;;7.60;53.70;;;;;;5010603;28;20460;-77
2023/02/22 12:46:47;;;;;;;13.30;8.45;;;7.60;54.20;;;;;;4994947;28;20026;-77
2023/02/22 12:49:28;;;;;;;13.15;8.40;;;7.60;54.50;;;;;;4976495;28;20034;-76
2023/02/22 12:52:09;;;;;;;14.02;8.23;;;7.70;54.80;;;;;;4994849;28;20046;-76
2023/02/22 12:54:44;;;;;;;13.73;7.85;;;7.70;55.00;;;;;;4995556;28;20101;-77
2023/02/22 12:57:27;;;;;;;13.40;8.30;;;7.70;55.40;;;;;;5009944;28;20125;-75
2023/02/22 13:00:09;;;;;;;15.40;8.23;;;7.70;55.60;;;;;;4993871;28;20041;-76
2023/02/22 13:02:42;;;;;;;11.55;7.35;;;7.80;55.90;;;;;;5010401;28;20457;-75
2023/02/22 13:05:16;;;;;;;12.88;7.82;;;7.80;56.10;;;;;;5009578;28;20038;-76
2023/02/22 13:07:51;;;;;;;12.93;7.72;;;7.80;56.10;;;;;;5010028;28;20037;-76
2023/02/22 13:10:50;;;;;;;12.73;7.75;;;7.80;56.10;;;;;;4995782;28;20046;-76
2023/02/22 13:13:28;;;;;;;12.20;7.68;;;7.90;56.10;;;;;;4994900;28;20053;-76